createdAt,value
2024-03-07T00:00:31.284Z,37.67
2024-03-07T00:03:00.385Z,17.85
2024-03-07T00:05:27.657Z,22.38
2024-03-07T00:07:57.471Z,16.70
2024-03-07T00:10:24.220Z,22.80
2024-03-07T00:12:50.995Z,15.68
2024-03-07T00:15:18.647Z,24.38
2024-03-07T00:17:45.496Z,19.70
2024-03-07T00:20:16.392Z,20.02
2024-03-07T00:22:44.088Z,20.77
2024-03-07T00:25:12.201Z,20.27
2024-03-07T00:27:41.938Z,21.20
2024-03-07T00:30:09.831Z,20.17
2024-03-07T00:32:37.753Z,10.32
2024-03-07T00:35:04.847Z,19.75
2024-03-07T00:37:31.941Z,19.85
2024-03-07T00:39:59.066Z,18.58
2024-03-07T00:42:25.794Z,20.58
2024-03-07T00:44:52.596Z,20.98
2024-03-07T00:47:19.587Z,23.83
2024-03-07T00:49:47.473Z,25.73
2024-03-07T00:52:15.008Z,29.50
2024-03-07T00:54:41.976Z,28.40
2024-03-07T00:57:09.120Z,30.05
2024-03-07T00:59:36.227Z,22.77
2024-03-07T01:02:03.393Z,26.15
2024-03-07T01:04:32.339Z,23.40
2024-03-07T01:07:02.505Z,20.85
2024-03-07T01:09:29.795Z,20.55
2024-03-07T01:11:56.963Z,19.23
2024-03-07T01:14:24.478Z,21.92
2024-03-07T01:16:51.476Z,19.30
2024-03-07T01:19:18.671Z,22.98
2024-03-07T01:21:45.439Z,21.20
2024-03-07T01:24:12.080Z,23.23
2024-03-07T01:26:38.805Z,23.02
2024-03-07T01:29:07.889Z,18.25
2024-03-07T01:31:35.015Z,17.02
2024-03-07T01:34:01.762Z,22.42
2024-03-07T01:36:28.444Z,21.88
2024-03-07T01:38:57.943Z,21.55
2024-03-07T01:41:25.316Z,13.60
2024-03-07T01:43:51.962Z,21.85
2024-03-07T01:46:18.678Z,21.58
2024-03-07T01:48:45.577Z,24.92
2024-03-07T01:51:12.438Z,24.33
2024-03-07T01:53:39.565Z,26.48
2024-03-07T01:56:06.797Z,21.45
2024-03-07T01:58:36.386Z,27.25
2024-03-07T02:01:03.211Z,20.90
2024-03-07T02:03:29.949Z,21.70
2024-03-07T02:05:57.588Z,19.73
2024-03-07T02:08:24.378Z,22.52
2024-03-07T02:10:51.260Z,23.35
2024-03-07T02:13:18.622Z,20.83
2024-03-07T02:15:45.341Z,29.52
2024-03-07T02:18:12.337Z,24.60
2024-03-07T02:20:43.244Z,25.25
2024-03-07T02:23:09.908Z,30.98
2024-03-07T02:25:38.500Z,22.52
2024-03-07T02:28:06.011Z,23.65
2024-03-07T02:30:33.245Z,26.73
2024-03-07T02:33:07.407Z,17.20
2024-03-07T02:35:39.095Z,23.15
2024-03-07T02:38:06.501Z,22.77
2024-03-07T02:40:33.469Z,24.48
2024-03-07T02:43:00.232Z,21.80
2024-03-07T02:45:26.903Z,28.17
2024-03-07T02:47:54.817Z,23.88
2024-03-07T02:50:23.016Z,24.10
2024-03-07T02:52:50.833Z,23.08
2024-03-07T02:55:18.519Z,25.33
2024-03-07T02:57:45.436Z,19.92
2024-03-07T03:00:27.599Z,25.20
2024-03-07T03:02:54.660Z,22.83
2024-03-07T03:05:21.432Z,31.20
2024-03-07T03:07:54.113Z,35.25
2024-03-07T03:10:27.672Z,21.73
2024-03-07T03:12:55.193Z,26.85
2024-03-07T03:15:22.138Z,24.17
2024-03-07T03:17:49.564Z,23.40
2024-03-07T03:20:25.679Z,32.35
2024-03-07T03:23:07.500Z,22.95
2024-03-07T03:25:42.286Z,28.00
2024-03-07T03:28:12.439Z,21.95
2024-03-07T03:30:40.160Z,26.20
2024-03-07T03:33:07.814Z,21.38
2024-03-07T03:35:35.378Z,22.35
2024-03-07T03:38:02.323Z,21.42
2024-03-07T03:40:29.054Z,25.30
2024-03-07T03:42:58.219Z,25.05
2024-03-07T03:45:26.449Z,24.15
2024-03-07T03:47:57.458Z,23.52
2024-03-07T03:50:24.241Z,23.90
2024-03-07T03:52:51.523Z,21.90
2024-03-07T03:55:18.299Z,24.00
2024-03-07T03:57:47.984Z,24.33
2024-03-07T04:00:15.014Z,23.70
2024-03-07T04:02:48.987Z,23.75
2024-03-07T04:05:20.041Z,22.83
2024-03-07T04:07:47.209Z,28.40
2024-03-07T04:10:15.834Z,20.35
2024-03-07T04:12:42.839Z,36.22
2024-03-07T04:15:18.314Z,28.30
2024-03-07T04:17:49.670Z,27.23
2024-03-07T04:20:18.531Z,20.40
2024-03-07T04:22:46.135Z,22.73
2024-03-07T04:25:13.298Z,25.05
2024-03-07T04:27:40.956Z,23.30
2024-03-07T04:30:10.558Z,21.90
2024-03-07T04:32:38.738Z,20.73
2024-03-07T04:35:08.669Z,21.60
2024-03-07T04:37:37.391Z,25.75
2024-03-07T04:40:18.119Z,19.50
2024-03-07T04:42:50.667Z,24.65
2024-03-07T04:45:18.572Z,21.92
2024-03-07T04:47:46.376Z,22.35
2024-03-07T04:50:18.242Z,20.67
2024-03-07T04:52:48.778Z,23.05
2024-03-07T04:55:16.314Z,24.98
2024-03-07T04:57:45.551Z,21.50
2024-03-07T05:00:17.832Z,22.20
2024-03-07T05:02:48.292Z,18.77
2024-03-07T05:05:15.648Z,23.13
2024-03-07T05:07:42.616Z,20.65
2024-03-07T05:10:09.875Z,22.33
2024-03-07T05:12:38.005Z,21.00
2024-03-07T05:15:06.493Z,21.13
2024-03-07T05:17:36.098Z,23.77
2024-03-07T05:20:06.616Z,21.20
2024-03-07T05:22:33.265Z,23.23
2024-03-07T05:25:00.233Z,23.48
2024-03-07T05:27:28.934Z,23.42
2024-03-07T05:29:56.544Z,19.85
2024-03-07T05:32:27.764Z,27.55
2024-03-07T05:34:55.135Z,23.38
2024-03-07T05:37:25.232Z,21.90
2024-03-07T05:39:53.137Z,23.90
2024-03-07T05:42:20.647Z,22.40
2024-03-07T05:44:47.783Z,25.10
2024-03-07T05:47:15.377Z,20.30
2024-03-07T05:49:42.041Z,24.40
2024-03-07T05:52:09.200Z,28.33
2024-03-07T05:54:36.666Z,35.65
2024-03-07T05:57:04.066Z,23.15
2024-03-07T05:59:32.051Z,35.15
2024-03-07T06:01:58.883Z,52.60
2024-03-07T06:04:25.707Z,34.22
2024-03-07T06:06:52.426Z,38.92
2024-03-07T06:09:25.037Z,35.83
2024-03-07T06:11:52.166Z,23.95
2024-03-07T06:14:19.216Z,46.95
2024-03-07T06:16:46.163Z,24.63
2024-03-07T06:19:13.609Z,27.63
2024-03-07T06:21:42.364Z,25.50
2024-03-07T06:24:11.548Z,24.15
2024-03-07T06:26:42.220Z,26.67
2024-03-07T06:29:09.445Z,23.33
2024-03-07T06:31:36.156Z,24.88
2024-03-07T06:34:03.138Z,24.73
2024-03-07T06:36:29.948Z,40.80
2024-03-07T06:38:56.696Z,23.13
2024-03-07T06:41:23.668Z,23.48
2024-03-07T06:43:53.730Z,22.65
2024-03-07T06:46:21.166Z,22.13
2024-03-07T06:48:48.259Z,21.63
2024-03-07T06:51:19.433Z,25.35
2024-03-07T06:53:49.510Z,23.20
2024-03-07T06:56:17.674Z,22.33
2024-03-07T06:58:46.730Z,20.27
2024-03-07T07:01:16.391Z,22.73
2024-03-07T07:03:47.140Z,21.27
2024-03-07T07:06:13.783Z,25.23
2024-03-07T07:08:40.813Z,21.35
2024-03-07T07:11:07.628Z,19.92
2024-03-07T07:13:37.292Z,22.23
2024-03-07T07:16:04.197Z,25.90
2024-03-07T07:18:31.754Z,18.85
2024-03-07T07:20:59.537Z,23.27
2024-03-07T07:23:27.710Z,27.15
2024-03-07T07:25:54.385Z,22.23
2024-03-07T07:28:21.095Z,24.30
2024-03-07T07:30:47.819Z,25.30
2024-03-07T07:33:15.375Z,21.50
2024-03-07T07:35:42.670Z,19.58
2024-03-07T07:38:12.013Z,20.23
2024-03-07T07:40:39.808Z,14.05
2024-03-07T07:43:09.357Z,21.83
2024-03-07T07:45:37.267Z,14.45
2024-03-07T07:48:04.640Z,26.40
2024-03-07T07:50:34.022Z,20.35
2024-03-07T07:53:00.736Z,16.00
2024-03-07T07:55:29.125Z,11.35
2024-03-07T07:58:00.051Z,15.80
2024-03-07T08:00:30.234Z,15.88
2024-03-07T08:03:04.836Z,11.68
2024-03-07T08:05:34.553Z,13.13
2024-03-07T08:08:07.762Z,12.50
2024-03-07T08:10:36.447Z,19.13
2024-03-07T08:13:04.632Z,12.38
2024-03-07T08:15:32.125Z,17.48
2024-03-07T08:18:02.826Z,19.27
2024-03-07T08:20:33.240Z,20.13
2024-03-07T08:23:00.714Z,25.38
2024-03-07T08:25:30.203Z,23.73
2024-03-07T08:27:58.955Z,25.48
2024-03-07T08:30:29.933Z,18.95
2024-03-07T08:32:58.203Z,17.67
2024-03-07T08:35:27.077Z,4.80
2024-03-07T08:37:56.108Z,21.38
2024-03-07T08:40:32.254Z,12.38
2024-03-07T08:43:00.012Z,12.18
2024-03-07T08:45:27.732Z,12.05
2024-03-07T08:47:56.469Z,11.10
2024-03-07T08:50:24.603Z,13.80
2024-03-07T08:52:54.570Z,10.60
2024-03-07T08:55:23.968Z,10.00
2024-03-07T08:57:50.909Z,13.50
2024-03-07T09:00:31.225Z,10.20
2024-03-07T09:03:03.628Z,13.57
2024-03-07T09:05:32.840Z,12.07
2024-03-07T09:08:01.528Z,12.23
2024-03-07T09:10:31.175Z,11.27
2024-03-07T09:12:58.813Z,15.98
2024-03-07T09:15:25.978Z,17.40
2024-03-07T09:17:54.278Z,13.32
2024-03-07T09:20:23.488Z,18.50
2024-03-07T09:22:51.239Z,11.98
2024-03-07T09:25:20.609Z,10.77
2024-03-07T09:27:48.069Z,13.77
2024-03-07T09:30:20.201Z,6.13
2024-03-07T09:32:47.186Z,13.50
2024-03-07T09:35:14.968Z,11.35
2024-03-07T09:37:43.537Z,12.10
2024-03-07T09:40:15.184Z,13.10
2024-03-07T09:42:49.736Z,14.48
2024-03-07T09:45:19.598Z,13.02
2024-03-07T09:47:52.462Z,12.00
2024-03-07T09:50:22.726Z,18.92
2024-03-07T09:52:50.924Z,14.07
2024-03-07T09:55:23.025Z,14.27
2024-03-07T09:57:57.725Z,12.70
2024-03-07T10:00:30.316Z,11.75
2024-03-07T10:03:21.898Z,11.90
2024-03-07T10:05:53.888Z,11.25
2024-03-07T10:08:22.504Z,11.60
2024-03-07T10:10:51.774Z,11.57
2024-03-07T10:13:19.324Z,7.88
2024-03-07T10:15:48.419Z,9.48
2024-03-07T10:18:23.452Z,10.52
2024-03-07T10:20:50.889Z,12.30
2024-03-07T10:23:23.550Z,12.68
2024-03-07T10:25:51.498Z,10.00
2024-03-07T10:28:18.907Z,11.93
2024-03-07T10:30:46.595Z,11.38
2024-03-07T10:33:13.874Z,10.57
2024-03-07T10:35:40.720Z,11.18
2024-03-07T10:38:08.727Z,8.98
2024-03-07T10:40:42.430Z,11.48
2024-03-07T10:43:17.379Z,6.25
2024-03-07T10:45:48.058Z,7.43
2024-03-07T10:48:25.382Z,11.15
2024-03-07T10:51:07.102Z,16.30
2024-03-07T10:53:45.726Z,10.82
2024-03-07T10:56:19.713Z,3.65
2024-03-07T10:58:46.393Z,12.23
2024-03-07T11:01:15.299Z,11.70
2024-03-07T11:03:43.712Z,10.82
2024-03-07T11:06:12.699Z,13.38
2024-03-07T11:08:43.007Z,9.77
2024-03-07T11:11:09.778Z,10.60
2024-03-07T11:13:38.649Z,12.25
2024-03-07T11:16:10.961Z,9.40
2024-03-07T11:18:37.803Z,10.52
2024-03-07T11:21:06.757Z,8.75
2024-03-07T11:23:34.767Z,10.27
2024-03-07T11:26:10.002Z,15.15
2024-03-07T11:28:38.656Z,16.48
2024-03-07T11:31:26.370Z,10.95
2024-03-07T11:34:15.713Z,9.52
2024-03-07T11:36:56.603Z,10.10
2024-03-07T11:39:44.447Z,8.70
2024-03-07T11:42:20.673Z,9.07
2024-03-07T11:44:47.618Z,11.10
2024-03-07T11:47:14.781Z,11.13
2024-03-07T11:49:41.484Z,11.52
2024-03-07T11:52:14.183Z,10.57
2024-03-07T11:54:47.025Z,10.05
2024-03-07T11:57:16.160Z,12.48
2024-03-07T11:59:47.095Z,4.00
2024-03-07T12:02:18.866Z,9.35
2024-03-07T12:04:45.689Z,12.77
2024-03-07T12:07:12.889Z,10.35
2024-03-07T12:09:40.685Z,4.93
2024-03-07T12:12:08.040Z,9.88
2024-03-07T12:14:35.228Z,11.18
2024-03-07T12:17:05.100Z,12.40
2024-03-07T12:19:34.806Z,10.02
2024-03-07T12:22:20.724Z,10.07
2024-03-07T12:24:47.985Z,15.00
2024-03-07T12:27:16.965Z,10.80
2024-03-07T12:29:44.665Z,9.35
2024-03-07T12:32:16.778Z,9.55
2024-03-07T12:34:49.703Z,10.15
2024-03-07T12:37:17.536Z,15.48
2024-03-07T12:39:49.963Z,9.80
2024-03-07T12:42:20.925Z,11.45
2024-03-07T12:44:50.439Z,9.80
2024-03-07T12:47:18.360Z,7.25
2024-03-07T12:49:45.801Z,9.32
2024-03-07T12:52:16.335Z,9.02
2024-03-07T12:54:43.945Z,8.10
2024-03-07T12:57:11.792Z,9.50
2024-03-07T12:59:42.291Z,9.98
2024-03-07T13:02:10.056Z,11.43
2024-03-07T13:04:43.106Z,8.35
2024-03-07T13:07:10.994Z,10.32
2024-03-07T13:09:39.245Z,10.60
2024-03-07T13:12:10.410Z,9.82
2024-03-07T13:14:37.523Z,16.67
2024-03-07T13:17:08.266Z,10.00
2024-03-07T13:19:34.998Z,9.45
2024-03-07T13:22:02.819Z,13.40
2024-03-07T13:24:29.509Z,9.57
2024-03-07T13:26:56.282Z,13.20
2024-03-07T13:29:25.931Z,9.25
2024-03-07T13:31:53.883Z,8.20
2024-03-07T13:34:20.753Z,8.68
2024-03-07T13:36:47.598Z,8.68
2024-03-07T13:39:15.168Z,8.45
2024-03-07T13:41:51.914Z,10.65
2024-03-07T13:44:20.570Z,12.40
2024-03-07T13:46:47.270Z,9.73
2024-03-07T13:49:14.167Z,8.07
2024-03-07T13:52:00.909Z,10.45
2024-03-07T13:54:33.651Z,8.90
2024-03-07T13:57:06.419Z,1.35
2024-03-07T13:59:54.112Z,10.68
2024-03-07T14:03:07.979Z,10.35
2024-03-07T14:05:57.891Z,10.10
2024-03-07T14:09:09.952Z,11.10
2024-03-07T14:12:11.101Z,9.02
2024-03-07T14:15:15.210Z,8.90
2024-03-07T14:18:16.272Z,9.43
2024-03-07T14:21:21.139Z,9.93
2024-03-07T14:24:19.543Z,10.52
2024-03-07T14:27:19.848Z,12.57
2024-03-07T14:30:11.128Z,9.40
2024-03-07T14:32:39.660Z,9.05
2024-03-07T14:35:09.472Z,9.63
2024-03-07T14:37:36.418Z,9.35
2024-03-07T14:40:14.372Z,8.98
2024-03-07T14:42:48.106Z,11.65
2024-03-07T14:45:25.388Z,13.20
2024-03-07T14:47:55.560Z,8.80
2024-03-07T14:50:24.040Z,7.18
2024-03-07T14:52:51.168Z,5.35
2024-03-07T14:55:20.010Z,9.23
2024-03-07T14:57:47.058Z,5.22
2024-03-07T15:00:29.184Z,9.40
2024-03-07T15:03:02.021Z,6.00
2024-03-07T15:05:29.026Z,12.20
2024-03-07T15:07:56.421Z,10.48
2024-03-07T15:10:29.505Z,3.78
2024-03-07T15:12:56.262Z,10.45
2024-03-07T15:15:25.386Z,6.38
2024-03-07T15:17:52.545Z,14.00
2024-03-07T15:20:27.400Z,9.00
2024-03-07T15:23:02.242Z,11.30
2024-03-07T15:25:30.687Z,11.15
2024-03-07T15:27:59.923Z,8.82
2024-03-07T15:30:37.713Z,10.18
2024-03-07T15:33:05.644Z,4.72
2024-03-07T15:35:33.864Z,9.75
2024-03-07T15:38:00.778Z,9.35
2024-03-07T15:40:30.349Z,9.68
2024-03-07T15:42:57.751Z,13.90
2024-03-07T15:45:26.627Z,8.43
2024-03-07T15:47:54.918Z,3.92
2024-03-07T15:50:23.253Z,4.10
2024-03-07T15:52:55.218Z,8.70
2024-03-07T15:55:25.481Z,10.55
2024-03-07T15:57:54.667Z,7.25
2024-03-07T16:00:30.928Z,6.38
2024-03-07T16:03:11.944Z,5.13
2024-03-07T16:05:40.992Z,8.48
2024-03-07T16:08:10.361Z,3.33
2024-03-07T16:10:40.451Z,11.10
2024-03-07T16:13:09.491Z,11.50
2024-03-07T16:15:41.642Z,9.40
2024-03-07T16:18:11.903Z,10.65
2024-03-07T16:20:39.802Z,8.50
2024-03-07T16:23:06.839Z,7.43
2024-03-07T16:25:35.194Z,9.80
2024-03-07T16:28:02.053Z,8.82
2024-03-07T16:30:32.844Z,7.88
2024-03-07T16:33:01.170Z,8.88
2024-03-07T16:35:32.102Z,7.93
2024-03-07T16:38:00.051Z,8.18
2024-03-07T16:40:28.156Z,8.98
2024-03-07T16:42:59.588Z,8.07
2024-03-07T16:45:30.067Z,10.05
2024-03-07T16:47:58.720Z,8.35
2024-03-07T16:50:30.351Z,8.18
2024-03-07T16:52:59.533Z,8.13
2024-03-07T16:55:26.248Z,10.23
2024-03-07T16:58:09.014Z,8.77
2024-03-07T17:00:40.707Z,8.30
2024-03-07T17:03:08.550Z,8.82
2024-03-07T17:05:36.880Z,9.82
2024-03-07T17:08:07.898Z,6.97
2024-03-07T17:10:37.294Z,11.82
2024-03-07T17:13:14.654Z,8.20
2024-03-07T17:15:47.165Z,10.88
2024-03-07T17:18:14.931Z,8.88
2024-03-07T17:20:44.161Z,9.45
2024-03-07T17:23:13.295Z,7.90
2024-03-07T17:25:39.931Z,8.15
2024-03-07T17:28:06.630Z,7.03
2024-03-07T17:30:33.977Z,8.18
2024-03-07T17:33:01.716Z,11.27
2024-03-07T17:35:30.966Z,4.35
2024-03-07T17:37:58.581Z,7.53
2024-03-07T17:40:28.676Z,7.93
2024-03-07T17:42:56.626Z,8.77
2024-03-07T17:45:35.376Z,7.80
2024-03-07T17:48:04.076Z,8.65
2024-03-07T17:50:33.143Z,7.72
2024-03-07T17:53:10.214Z,8.15
2024-03-07T17:55:42.035Z,8.73
2024-03-07T17:58:09.727Z,7.65
2024-03-07T18:00:37.140Z,10.10
2024-03-07T18:03:06.231Z,8.07
2024-03-07T18:05:38.272Z,7.47
2024-03-07T18:08:21.541Z,7.82
2024-03-07T18:10:56.603Z,9.27
2024-03-07T18:13:23.698Z,8.70
2024-03-07T18:15:50.725Z,10.00
2024-03-07T18:18:17.959Z,8.52
2024-03-07T18:20:46.385Z,8.52
2024-03-07T18:23:14.193Z,8.30
2024-03-07T18:25:41.811Z,10.70
2024-03-07T18:28:08.605Z,8.48
2024-03-07T18:30:35.491Z,8.38
2024-03-07T18:33:06.881Z,12.10
2024-03-07T18:35:35.089Z,9.18
2024-03-07T18:38:02.667Z,8.02
2024-03-07T18:40:30.231Z,7.78
2024-03-07T18:42:57.910Z,7.90
2024-03-07T18:45:27.603Z,8.90
2024-03-07T18:47:55.018Z,8.10
2024-03-07T18:50:23.680Z,8.02
2024-03-07T18:52:51.659Z,8.38
2024-03-07T18:55:21.453Z,7.55
2024-03-07T18:57:50.106Z,8.73
2024-03-07T19:00:54.425Z,8.60
2024-03-07T19:03:22.396Z,8.82
2024-03-07T19:05:51.321Z,7.90
2024-03-07T19:08:21.624Z,7.70
2024-03-07T19:10:50.120Z,8.30
2024-03-07T19:13:18.396Z,8.77
2024-03-07T19:15:45.422Z,9.45
2024-03-07T19:18:15.317Z,7.80
2024-03-07T19:20:43.453Z,9.98
2024-03-07T19:23:12.123Z,8.88
2024-03-07T19:25:42.268Z,8.45
2024-03-07T19:28:16.639Z,7.97
2024-03-07T19:30:48.005Z,11.63
2024-03-07T19:33:22.054Z,9.70
2024-03-07T19:35:52.220Z,8.23
2024-03-07T19:38:19.839Z,11.55
2024-03-07T19:40:46.955Z,9.10
2024-03-07T19:43:15.499Z,9.65
2024-03-07T19:45:43.502Z,9.63
2024-03-07T19:48:13.360Z,8.27
2024-03-07T19:50:42.864Z,8.55
2024-03-07T19:53:15.246Z,7.13
2024-03-07T19:55:43.277Z,10.60
2024-03-07T19:58:10.078Z,10.05
2024-03-07T20:00:36.844Z,7.95
2024-03-07T20:03:04.356Z,8.02
2024-03-07T20:05:33.133Z,9.70
2024-03-07T20:07:59.989Z,14.48
2024-03-07T20:10:30.098Z,8.60
2024-03-07T20:12:57.564Z,12.38
2024-03-07T20:15:25.248Z,7.60
2024-03-07T20:17:52.308Z,7.95
2024-03-07T20:20:24.802Z,9.48
2024-03-07T20:22:55.249Z,7.82
2024-03-07T20:25:22.673Z,8.88
2024-03-07T20:27:57.081Z,8.98
2024-03-07T20:30:24.146Z,7.90
2024-03-07T20:32:51.137Z,9.57
2024-03-07T20:35:21.332Z,8.02
2024-03-07T20:37:49.648Z,7.35
2024-03-07T20:40:26.561Z,8.88
2024-03-07T20:42:53.519Z,10.05
2024-03-07T20:45:22.672Z,8.57
2024-03-07T20:47:50.566Z,8.32
2024-03-07T20:50:21.004Z,8.70
2024-03-07T20:52:51.189Z,9.02
2024-03-07T20:55:19.514Z,12.57
2024-03-07T20:57:47.730Z,8.60
2024-03-07T21:00:18.889Z,8.73
2024-03-07T21:02:48.201Z,10.32
2024-03-07T21:05:16.510Z,13.40
2024-03-07T21:07:45.563Z,8.90
2024-03-07T21:10:14.115Z,9.95
2024-03-07T21:12:41.020Z,6.97
2024-03-07T21:15:09.035Z,9.95
2024-03-07T21:17:36.489Z,11.98
2024-03-07T21:20:14.423Z,10.57
2024-03-07T21:22:42.626Z,13.25
2024-03-07T21:25:13.858Z,13.77
2024-03-07T21:27:42.151Z,15.05
2024-03-07T21:30:10.776Z,12.90
2024-03-07T21:32:38.255Z,8.15
2024-03-07T21:35:08.577Z,9.68
2024-03-07T21:37:35.685Z,10.52
2024-03-07T21:40:03.741Z,9.32
2024-03-07T21:42:31.341Z,10.88
2024-03-07T21:44:58.013Z,8.93
2024-03-07T21:47:24.921Z,10.48
2024-03-07T21:49:51.949Z,8.93
2024-03-07T21:52:18.691Z,7.75
2024-03-07T21:54:47.268Z,8.27
2024-03-07T21:57:14.841Z,11.30
2024-03-07T21:59:42.017Z,9.25
2024-03-07T22:02:10.375Z,13.23
2024-03-07T22:07:15.912Z,10.52
2024-03-07T22:09:43.422Z,11.23
2024-03-07T22:12:10.164Z,8.80
2024-03-07T22:14:38.848Z,10.70
2024-03-07T22:17:06.087Z,10.25
2024-03-07T22:19:35.793Z,10.30
2024-03-07T22:22:05.011Z,9.75
2024-03-07T22:24:31.764Z,9.15
2024-03-07T22:26:58.577Z,9.32
2024-03-07T22:29:25.398Z,9.27
2024-03-07T22:31:52.129Z,12.43
2024-03-07T22:34:18.827Z,10.35
2024-03-07T22:36:46.157Z,11.73
2024-03-07T22:39:13.486Z,14.45
2024-03-07T22:41:43.543Z,9.70
2024-03-07T22:44:11.576Z,16.20
2024-03-07T22:46:38.646Z,13.30
2024-03-07T22:49:05.879Z,9.50
2024-03-07T22:51:32.696Z,8.18
2024-03-07T22:53:59.534Z,13.25
2024-03-07T22:56:27.674Z,11.80
2024-03-07T22:58:56.235Z,16.08
2024-03-07T23:01:32.736Z,16.15
2024-03-07T23:04:02.608Z,14.95
2024-03-07T23:06:32.473Z,12.75
2024-03-07T23:08:59.812Z,9.90
2024-03-07T23:11:26.682Z,11.60
2024-03-07T23:13:53.441Z,10.32
2024-03-07T23:16:20.094Z,10.30
2024-03-07T23:18:47.900Z,9.32
2024-03-07T23:21:14.638Z,10.68
2024-03-07T23:23:42.681Z,12.57
2024-03-07T23:26:09.859Z,9.80
2024-03-07T23:28:37.028Z,10.23
2024-03-07T23:31:05.038Z,10.25
2024-03-07T23:33:31.819Z,10.10
2024-03-07T23:35:58.622Z,11.95
2024-03-07T23:38:25.456Z,12.38
2024-03-07T23:40:52.206Z,11.63
2024-03-07T23:43:18.941Z,11.40
2024-03-07T23:45:46.915Z,10.75
2024-03-07T23:48:13.608Z,11.45
2024-03-07T23:50:40.389Z,14.48
2024-03-07T23:53:07.806Z,12.93
2024-03-07T23:55:35.468Z,10.02
2024-03-07T23:58:02.516Z,13.32
